Flight Track Log - Related Links

Times and Time Zones

All times are in EDT time to prevent confusion due to time zone crossing. See the N405ER flight status page for this flight to view local times or setup timezone preferences in your user account.

Time Position Orientation Groundspeed Altitude Reporting Facility
EDT Latitude Longitude Course Direction KTS MPH feet Rate Location/Type
Tue 10:19:59 PM 30.1828 -81.8328 133° Southeast 106 122 2,100  Level Jacksonville Center
Tue 10:20:59 PM 30.1575 -81.8164 151° Southeast 92 106 2,800 645 Climbing Jacksonville Center
Tue 10:22:00 PM 30.1344 -81.7950 141° Southeast 117 135 3,400 541 Climbing Jacksonville Center
Tue 10:23:01 PM 30.1114 -81.7808 152° Southeast 103 119 3,900 298 Climbing Jacksonville Center
Tue 10:24:01 PM 30.0861 -81.7547 138° Southeast 128 147 4,000 50 Climbing Jacksonville Center
Tue 10:25:02 PM 30.0586 -81.7333 146° Southeast 128 147 4,000  Level Jacksonville Center
Tue 10:26:03 PM 30.0314 -81.7097 143° Southeast 119 137 4,000  Level Jacksonville Center
Tue 10:27:04 PM 30.0000 -81.6911 153° Southeast 119 137 4,000  Level Jacksonville Center
Tue 10:28:04 PM 29.9725 -81.6672 143° Southeast 121 139 4,000  Level Jacksonville Center
Tue 10:28:54 PM 29.9494 -81.6508 148° Southeast 122 140 4,000  Level Jacksonville Center
Tue 10:29:13 PM 29.9411 -81.6439 144° Southeast 123 142 4,000  Level Jacksonville Center
Tue 10:30:13 PM 29.9117 -81.6225 148° Southeast 121 139 4,000  Level Jacksonville Center
Tue 10:31:14 PM 29.8864 -81.6014 144° Southeast 120 138 4,000  Level Jacksonville Center
Tue 10:32:14 PM 29.8569 -81.5825 151° Southeast 116 133 4,000  Level Jacksonville Center
Tue 10:33:15 PM 29.8317 -81.5589 141° Southeast 114 131 4,000  Level Jacksonville Center
Tue 10:34:16 PM 29.8042 -81.5403 150° Southeast 114 131 4,000  Level Jacksonville Center
Tue 10:35:16 PM 29.7811 -81.5142 135° Southeast 119 137 4,000  Level Jacksonville Center
Tue 10:36:17 PM 29.7514 -81.4908 146° Southeast 124 143 4,000  Level Jacksonville Center
Tue 10:37:18 PM 29.7219 -81.4647 142° Southeast 127 146 4,000  Level Jacksonville Center
Tue 10:38:18 PM 29.6944 -81.4389 141° Southeast 125 144 4,000  Level Jacksonville Center
Tue 10:39:19 PM 29.6692 -81.4156 141° Southeast 124 143 4,000  Level Jacksonville Center
Tue 10:40:19 PM 29.6397 -81.3894 142° Southeast 124 143 4,000  Level Jacksonville Center
Tue 10:41:20 PM 29.6144 -81.3661 141° Southeast 124 143 4,000  Level Jacksonville Center
Tue 10:42:21 PM 29.5847 -81.3425 145° Southeast 124 143 4,000  Level Jacksonville Center
Tue 10:43:21 PM 29.5575 -81.3192 143° Southeast 122 140 4,000  Level Jacksonville Center
Tue 10:44:22 PM 29.5300 -81.2933 141° Southeast 122 140 4,000  Level Jacksonville Center
Tue 10:45:29 PM 29.5006 -81.2700 145° Southeast 122 140 4,000  Level Jacksonville Center
Tue 10:46:29 PM 29.4731 -81.2442 141° Southeast 124 143 4,000  Level Jacksonville Center
Tue 10:47:36 PM 29.4414 -81.2161 142° Southeast 123 142 4,000 -234 Level Jacksonville Center
Tue 10:48:37 PM 29.4181 -81.1928 139° Southeast 124 143 3,500 -694 Descending Jacksonville Center
Tue 10:49:37 PM 29.3906 -81.1694 144° Southeast 126 145 2,600 -744 Descending Jacksonville Center
Tue 10:50:38 PM 29.3611 -81.1436 143° Southeast 122 140 2,000 -397 Descending Jacksonville Center
Tue 10:51:38 PM 29.3336 -81.1275 153° Southeast 112 129 1,800 -209 Descending Jacksonville Center
Tue 10:52:33 PM 29.3064 -81.1136 156° South 112 129 1,600 -110 Descending Jacksonville Center
Tue 10:53:27 PM 29.2811 -81.1022 159° South 105 121 1,600 -104 Level Jacksonville Center
Tue 10:54:28 PM 29.2539 -81.0883 156° South 112 129 1,400 -429 Descending Jacksonville Center
Tue 10:56:29 PM 29.1992 -81.0656 160° South 96 110 300 -545 Descending Jacksonville Center
Tue 10:58:00 PM 29.1799 -81.0581 157° South  Level Estimated
Tue 11:05:00 PM 29.1799 -81.0581 147° Southeast  Level Estimated
Tue 11:06:00 PM 29.1799 -81.0581 152° Southeast  Level Estimated

Login

Don't have an account? Register now (free) for customized features, flight alerts, and more!